Time;durP1;ratioP1;P1;durP2;ratioP2;P2;SDS_P1;SDS_P2;PMS_P1;PMS_P2;Temp;Humidity;BMP_temperature;BMP_pressure;BME280_temperature;BME280_humidity;BME280_pressure;Samples;Min_cycle;Max_cycle;Signal;HPM_P1;HPM_P2
2022/04/05 00:01:26;;;;;;;;;;;7.40;99.90;;;;;;5027682;28;19925;-77
2022/04/05 00:03:53;;;;;;;;;;;7.40;99.90;;;;;;5027001;28;19926;-77
2022/04/05 00:06:19;;;;;;;;;;;7.40;99.90;;;;;;5017352;28;19925;-77
2022/04/05 00:08:46;;;;;;;;;;;7.30;99.90;;;;;;5007041;28;19925;-77
2022/04/05 00:11:12;;;;;;;;;;;7.40;99.90;;;;;;5028846;28;19932;-77
2022/04/05 00:13:39;;;;;;;;;;;7.30;99.90;;;;;;5027956;28;19925;-77
2022/04/05 00:16:05;;;;;;;;;;;7.30;99.90;;;;;;5029839;28;19933;-77
2022/04/05 00:18:32;;;;;;;;;;;7.30;99.90;;;;;;5030281;28;19996;-77
2022/04/05 00:20:59;;;;;;;;;;;7.30;99.90;;;;;;5001328;28;20313;-77
2022/04/05 00:23:25;;;;;;;;;;;7.30;99.90;;;;;;5024200;28;20304;-77
2022/04/05 00:25:52;;;;;;;;;;;7.30;99.90;;;;;;5004029;28;19929;-77
2022/04/05 00:28:18;;;;;;;;;;;7.30;99.90;;;;;;5026990;28;20380;-77
2022/04/05 00:30:45;;;;;;;;;;;7.40;99.90;;;;;;5027701;28;19979;-77
2022/04/05 00:33:11;;;;;;;;;;;7.40;99.90;;;;;;5012705;28;19932;-77
2022/04/05 00:35:38;;;;;;;;;;;7.50;99.90;;;;;;5030146;28;19925;-77
2022/04/05 00:38:05;;;;;;;;;;;7.50;99.90;;;;;;5014308;28;20388;-77
2022/04/05 00:40:31;;;;;;;;;;;7.40;99.90;;;;;;5015149;28;19925;-77
2022/04/05 00:42:58;;;;;;;;;;;7.50;99.90;;;;;;5021390;28;20308;-77
2022/04/05 00:45:25;;;;;;;;;;;7.50;99.90;;;;;;5008144;28;19939;-79
2022/04/05 00:47:51;;;;;;;;;;;7.40;99.90;;;;;;5030013;28;19933;-78
2022/04/05 00:50:18;;;;;;;;;;;7.50;99.90;;;;;;5021175;28;19933;-79
2022/04/05 00:52:45;;;;;;;;;;;7.40;99.90;;;;;;5002283;28;19921;-77
2022/04/05 00:55:11;;;;;;;;;;;7.40;99.90;;;;;;5030111;28;19925;-77
2022/04/05 00:57:38;;;;;;;;;;;7.50;99.90;;;;;;5007473;28;19926;-78
2022/04/05 01:00:04;;;;;;;;;;;7.40;99.90;;;;;;5029605;28;19925;-77
2022/04/05 01:02:31;;;;;;;;;;;7.40;99.90;;;;;;5024498;28;19932;-78
2022/04/05 01:04:58;;;;;;;;;;;7.30;99.90;;;;;;5030092;28;19925;-78
2022/04/05 01:07:24;;;;;;;;;;;7.30;99.90;;;;;;5024937;28;20315;-80
2022/04/05 01:09:53;;;;;;;;;;;7.50;99.90;;;;;;5023527;28;19925;-78
2022/04/05 01:12:20;;;;;;;;;;;7.50;99.90;;;;;;5020900;28;19926;-79
2022/04/05 01:14:47;;;;;;;;;;;7.40;99.90;;;;;;5024105;28;19925;-79
2022/04/05 01:17:13;;;;;;;;;;;7.50;99.90;;;;;;5027551;28;20439;-78
2022/04/05 01:19:40;;;;;;;;;;;7.40;99.90;;;;;;5034174;28;20389;-79
2022/04/05 01:22:06;;;;;;;;;;;7.40;99.90;;;;;;5014266;28;19933;-78
2022/04/05 01:24:33;;;;;;;;;;;7.40;99.90;;;;;;5034046;28;19925;-78
2022/04/05 01:27:00;;;;;;;;;;;7.40;99.90;;;;;;5027473;28;20015;-78
2022/04/05 01:29:26;;;;;;;;;;;7.40;99.90;;;;;;5021566;28;19941;-78
2022/04/05 01:31:53;;;;;;;;;;;7.30;99.90;;;;;;5029635;28;19925;-78
2022/04/05 01:34:20;;;;;;;;;;;7.30;99.90;;;;;;5013086;28;19933;-78
2022/04/05 01:36:46;;;;;;;;;;;7.20;99.90;;;;;;5010877;28;19939;-79
2022/04/05 01:39:13;;;;;;;;;;;7.20;99.90;;;;;;5029509;28;19925;-79
2022/04/05 01:41:40;;;;;;;;;;;7.20;99.90;;;;;;5026691;28;19932;-78
2022/04/05 01:44:06;;;;;;;;;;;7.30;99.90;;;;;;5024806;28;19930;-78
2022/04/05 01:46:33;;;;;;;;;;;7.30;99.90;;;;;;5009015;28;19955;-79
2022/04/05 01:48:59;;;;;;;;;;;7.20;99.90;;;;;;5013261;28;19926;-78
2022/04/05 01:51:26;;;;;;;;;;;7.20;99.90;;;;;;5032420;28;19930;-78
2022/04/05 01:53:53;;;;;;;;;;;7.10;99.90;;;;;;5026637;28;20284;-79
2022/04/05 01:56:19;;;;;;;;;;;7.10;99.90;;;;;;5021244;28;19948;-79
2022/04/05 01:58:46;;;;;;;;;;;7.00;99.90;;;;;;5020790;28;19975;-79
2022/04/05 02:01:12;;;;;;;;;;;7.00;99.90;;;;;;5030466;28;19926;-79
2022/04/05 02:03:39;;;;;;;;;;;7.10;99.90;;;;;;5026253;28;19933;-79
2022/04/05 02:06:06;;;;;;;;;;;7.10;99.90;;;;;;5025938;28;19936;-79
2022/04/05 02:08:32;;;;;;;;;;;7.00;99.90;;;;;;5009775;28;19925;-81
2022/04/05 02:10:59;;;;;;;;;;;7.10;99.90;;;;;;5026705;28;19926;-79
2022/04/05 02:13:26;;;;;;;;;;;7.10;99.90;;;;;;5020327;28;20555;-77
2022/04/05 02:15:52;;;;;;;;;;;7.10;99.90;;;;;;5028120;28;20540;-79
2022/04/05 02:18:19;;;;;;;;;;;7.10;99.90;;;;;;5030526;28;20352;-77
2022/04/05 02:20:49;;;;;;;;;;;7.00;99.90;;;;;;5015687;28;19932;-79
2022/04/05 02:23:15;;;;;;;;;;;7.00;99.90;;;;;;5019991;28;20422;-79
2022/04/05 02:25:42;;;;;;;;;;;7.00;99.90;;;;;;4997558;28;19925;-80
2022/04/05 02:28:09;;;;;;;;;;;6.90;99.90;;;;;;5016837;28;19925;-78
2022/04/05 02:30:35;;;;;;;;;;;6.90;99.90;;;;;;5029261;28;19932;-79
2022/04/05 02:33:02;;;;;;;;;;;7.00;99.90;;;;;;5027085;28;19936;-78
2022/04/05 02:35:28;;;;;;;;;;;6.90;99.90;;;;;;5017327;28;19926;-79
2022/04/05 02:37:55;;;;;;;;;;;7.00;99.90;;;;;;5000413;28;19932;-78
2022/04/05 02:40:21;;;;;;;;;;;6.90;99.90;;;;;;5026414;28;19932;-78
2022/04/05 02:42:48;;;;;;;;;;;6.90;99.90;;;;;;5006467;28;19936;-79
2022/04/05 02:45:14;;;;;;;;;;;6.90;99.90;;;;;;5022994;28;19932;-79
2022/04/05 02:47:41;;;;;;;;;;;6.80;99.90;;;;;;5020361;28;19925;-80
2022/04/05 02:50:07;;;;;;;;;;;6.80;99.90;;;;;;5002329;28;19932;-79
2022/04/05 02:52:34;;;;;;;;;;;6.80;99.90;;;;;;5019104;28;19925;-81
2022/04/05 02:55:01;;;;;;;;;;;6.80;99.90;;;;;;5020211;28;20012;-79
2022/04/05 02:57:27;;;;;;;;;;;6.70;99.90;;;;;;5028419;28;19929;-79
2022/04/05 02:59:54;;;;;;;;;;;6.80;99.90;;;;;;5017309;28;20737;-79
2022/04/05 03:02:20;;;;;;;;;;;6.70;99.90;;;;;;5026107;28;19933;-78
2022/04/05 03:04:47;;;;;;;;;;;6.60;99.90;;;;;;5025522;28;19935;-79
2022/04/05 03:07:15;;;;;;;;;;;6.60;99.90;;;;;;5015407;28;20388;-78
2022/04/05 03:09:41;;;;;;;;;;;6.60;99.90;;;;;;5009652;28;19925;-78
2022/04/05 03:12:08;;;;;;;;;;;6.50;99.90;;;;;;5031387;28;19932;-78
2022/04/05 03:14:34;;;;;;;;;;;6.60;99.90;;;;;;5011314;28;20032;-77
2022/04/05 03:17:01;;;;;;;;;;;6.70;99.90;;;;;;5026367;28;19971;-79
2022/04/05 03:19:28;;;;;;;;;;;6.50;99.90;;;;;;5019250;28;19925;-77
2022/04/05 03:21:54;;;;;;;;;;;6.40;99.90;;;;;;5019002;28;19939;-77
2022/04/05 03:24:21;;;;;;;;;;;6.50;99.90;;;;;;5020105;28;19940;-77
2022/04/05 03:26:47;;;;;;;;;;;6.50;99.90;;;;;;5026107;28;19929;-78
2022/04/05 03:29:14;;;;;;;;;;;6.50;99.90;;;;;;5010531;28;19925;-79
2022/04/05 03:31:40;;;;;;;;;;;6.50;99.90;;;;;;5017466;28;19932;-76
2022/04/05 03:34:07;;;;;;;;;;;6.50;99.90;;;;;;5032679;28;19929;-78
2022/04/05 03:36:34;;;;;;;;;;;6.40;99.90;;;;;;5021005;28;20409;-77
2022/04/05 03:39:01;;;;;;;;;;;6.40;99.90;;;;;;5025533;28;20344;-77
2022/04/05 03:41:29;;;;;;;;;;;6.40;99.90;;;;;;5030637;28;19933;-78
2022/04/05 03:43:56;;;;;;;;;;;6.40;99.90;;;;;;5024162;28;19925;-76
2022/04/05 03:46:22;;;;;;;;;;;6.40;99.90;;;;;;5018008;28;19932;-77
2022/04/05 03:48:49;;;;;;;;;;;6.40;99.90;;;;;;5016477;28;19932;-78
2022/04/05 03:51:15;;;;;;;;;;;6.40;99.90;;;;;;5022854;28;19933;-78
2022/04/05 03:53:42;;;;;;;;;;;6.30;99.90;;;;;;5007922;28;19933;-79
2022/04/05 03:56:09;;;;;;;;;;;6.40;99.90;;;;;;5026807;28;20005;-78
2022/04/05 03:58:35;;;;;;;;;;;6.30;99.90;;;;;;5025575;28;19932;-78
2022/04/05 04:01:02;;;;;;;;;;;6.30;99.90;;;;;;5021247;28;19925;-78
2022/04/05 04:03:28;;;;;;;;;;;6.20;99.90;;;;;;5016210;28;19925;-78
2022/04/05 04:05:55;;;;;;;;;;;6.20;99.90;;;;;;5019295;28;19932;-78
2022/04/05 04:08:21;;;;;;;;;;;6.20;99.90;;;;;;5020599;28;19925;-78
2022/04/05 04:10:48;;;;;;;;;;;6.20;99.90;;;;;;5028266;28;19929;-78
2022/04/05 04:13:15;;;;;;;;;;;6.20;99.90;;;;;;5026150;28;19925;-77
2022/04/05 04:15:41;;;;;;;;;;;6.20;99.90;;;;;;5024469;28;19925;-80
2022/04/05 04:18:08;;;;;;;;;;;6.10;99.90;;;;;;5025716;28;19929;-78
2022/04/05 04:20:35;;;;;;;;;;;6.10;99.90;;;;;;5021706;28;19925;-77
2022/04/05 04:23:01;;;;;;;;;;;6.10;99.90;;;;;;5010355;28;20183;-79
2022/04/05 04:25:28;;;;;;;;;;;6.10;99.90;;;;;;5020218;28;19929;-78
2022/04/05 04:27:54;;;;;;;;;;;6.10;99.90;;;;;;5025120;28;19925;-80
2022/04/05 04:30:21;;;;;;;;;;;6.10;99.90;;;;;;5022462;28;19925;-78
2022/04/05 04:32:47;;;;;;;;;;;6.10;99.90;;;;;;5007824;28;20377;-79
2022/04/05 04:35:14;;;;;;;;;;;6.20;99.90;;;;;;5018090;28;20266;-78
2022/04/05 04:37:40;;;;;;;;;;;6.10;99.90;;;;;;5005079;28;20308;-78
2022/04/05 04:40:07;;;;;;;;;;;6.10;99.90;;;;;;5031138;28;19936;-78
2022/04/05 04:42:34;;;;;;;;;;;6.10;99.90;;;;;;5021526;28;20289;-78
2022/04/05 04:45:00;;;;;;;;;;;6.10;99.90;;;;;;5014822;28;19928;-78
2022/04/05 04:47:27;;;;;;;;;;;6.10;99.90;;;;;;5018815;28;19925;-78
2022/04/05 04:49:53;;;;;;;;;;;6.10;99.90;;;;;;5013338;28;20265;-78
2022/04/05 04:52:20;;;;;;;;;;;6.10;99.90;;;;;;5027424;28;20257;-78
2022/04/05 04:54:46;;;;;;;;;;;6.10;99.90;;;;;;5017835;28;19948;-80
2022/04/05 04:57:13;;;;;;;;;;;6.10;99.90;;;;;;5020741;28;19925;-79
2022/04/05 04:59:39;;;;;;;;;;;6.10;99.90;;;;;;5019154;28;19932;-79
2022/04/05 05:02:06;;;;;;;;;;;6.10;99.90;;;;;;5010648;28;19929;-79
2022/04/05 05:04:33;;;;;;;;;;;6.20;99.90;;;;;;5005122;28;19932;-78
2022/04/05 05:06:59;;;;;;;;;;;6.20;99.90;;;;;;5028130;28;19925;-78
2022/04/05 05:09:26;;;;;;;;;;;6.20;99.90;;;;;;5024648;28;19933;-79
2022/04/05 05:11:52;;;;;;;;;;;6.20;99.90;;;;;;5024314;28;19933;-79
2022/04/05 05:14:19;;;;;;;;;;;6.20;99.90;;;;;;5009109;28;19983;-78
2022/04/05 05:16:45;;;;;;;;;;;6.20;99.90;;;;;;5015677;28;19936;-79
2022/04/05 05:19:12;;;;;;;;;;;6.20;99.90;;;;;;5025620;28;19925;-78
2022/04/05 05:21:38;;;;;;;;;;;6.20;99.90;;;;;;5014256;28;19932;-79
2022/04/05 05:24:05;;;;;;;;;;;6.20;99.90;;;;;;5026530;28;19936;-78
2022/04/05 05:26:32;;;;;;;;;;;6.20;99.90;;;;;;5026951;28;19926;-76
2022/04/05 05:28:58;;;;;;;;;;;6.20;99.90;;;;;;5008858;28;19937;-78
2022/04/05 05:31:25;;;;;;;;;;;6.20;99.90;;;;;;5021189;28;19926;-77
2022/04/05 05:33:51;;;;;;;;;;;6.20;99.90;;;;;;5019297;28;19983;-81
2022/04/05 05:36:18;;;;;;;;;;;6.30;99.90;;;;;;5016099;28;19936;-78
2022/04/05 05:38:44;;;;;;;;;;;6.20;99.90;;;;;;5027908;28;20382;-78
2022/04/05 05:41:11;;;;;;;;;;;6.20;99.90;;;;;;5014959;28;19922;-78
2022/04/05 05:43:38;;;;;;;;;;;6.20;99.90;;;;;;5022933;28;19929;-78
2022/04/05 05:46:06;;;;;;;;;;;6.30;99.90;;;;;;5026699;28;20032;-78
2022/04/05 05:48:33;;;;;;;;;;;6.30;99.90;;;;;;5019614;28;19933;-77
2022/04/05 05:50:59;;;;;;;;;;;6.30;99.90;;;;;;5018217;28;19926;-78
2022/04/05 05:53:27;;;;;;;;;;;6.30;99.90;;;;;;5001818;28;19968;-78
2022/04/05 05:55:54;;;;;;;;;;;6.40;99.90;;;;;;4999952;28;19933;-79
2022/04/05 05:58:20;;;;;;;;;;;6.30;99.90;;;;;;5017635;28;19925;-78
2022/04/05 06:00:47;;;;;;;;;;;6.40;99.90;;;;;;4998571;28;19925;-79
2022/04/05 06:03:14;;;;;;;;;;;6.40;99.90;;;;;;5018189;28;19933;-78
2022/04/05 06:05:40;;;;;;;;;;;6.30;99.90;;;;;;5019068;28;19932;-79
2022/04/05 06:08:07;;;;;;;;;;;6.40;99.90;;;;;;4999254;28;19926;-78
2022/04/05 06:10:33;;;;;;;;;;;6.40;99.90;;;;;;5017918;28;19980;-78
2022/04/05 06:13:00;;;;;;;;;;;6.40;99.90;;;;;;5002756;28;19925;-78
2022/04/05 06:15:26;;;;;;;;;;;6.40;99.90;;;;;;4996947;28;19926;-78
2022/04/05 06:17:53;;;;;;;;;;;6.40;99.90;;;;;;5017786;28;19937;-80
2022/04/05 06:20:19;;;;;;;;;;;6.50;99.90;;;;;;5016000;28;19932;-79
2022/04/05 06:22:46;;;;;;;;;;;6.60;99.90;;;;;;5016461;28;19925;-79
2022/04/05 06:25:12;;;;;;;;;;;6.50;99.90;;;;;;4997985;28;20076;-78
2022/04/05 06:27:39;;;;;;;;;;;6.50;99.90;;;;;;5016658;28;19976;-78
2022/04/05 06:30:06;;;;;;;;;;;6.60;99.90;;;;;;4997586;28;19929;-78
2022/04/05 06:32:32;;;;;;;;;;;6.60;99.90;;;;;;5017555;28;20284;-78
2022/04/05 06:34:59;;;;;;;;;;;6.60;99.90;;;;;;5019851;28;19977;-79
2022/04/05 06:37:25;;;;;;;;;;;6.60;99.90;;;;;;5001348;28;19926;-79
2022/04/05 06:39:52;;;;;;;;;;;6.60;99.90;;;;;;5017735;28;19925;-78
2022/04/05 06:42:18;;;;;;;;;;;6.60;99.90;;;;;;5016380;28;19933;-79
2022/04/05 06:44:45;;;;;;;;;;;6.70;99.90;;;;;;4999475;28;19932;-78
2022/04/05 06:47:12;;;;;;;;;;;6.70;99.90;;;;;;5018168;28;19925;-78
2022/04/05 06:49:38;;;;;;;;;;;6.80;99.90;;;;;;4999010;28;20514;-78
2022/04/05 06:52:05;;;;;;;;;;;6.80;99.90;;;;;;5014701;28;20400;-78
2022/04/05 06:54:31;;;;;;;;;;;6.80;99.90;;;;;;5002749;28;19926;-78
2022/04/05 06:56:58;;;;;;;;;;;6.90;99.90;;;;;;5015367;28;20301;-81
2022/04/05 06:59:24;;;;;;;;;;;6.90;99.90;;;;;;5006977;28;20285;-79
2022/04/05 07:01:51;;;;;;;;;;;7.00;99.90;;;;;;5000467;28;20362;-78
2022/04/05 07:04:17;;;;;;;;;;;7.00;99.90;;;;;;5023778;28;20510;-79
2022/04/05 07:06:44;;;;;;;;;;;7.10;99.90;;;;;;4999204;28;19925;-78
2022/04/05 07:09:11;;;;;;;;;;;7.00;99.90;;;;;;5005504;28;19960;-78
2022/04/05 07:11:38;;;;;;;;;;;7.10;99.90;;;;;;5000627;28;20284;-80
2022/04/05 07:14:04;;;;;;;;;;;7.10;99.90;;;;;;5023338;28;19925;-87
2022/04/05 07:16:31;;;;;;;;;;;7.10;99.90;;;;;;5015834;28;19931;-78
2022/04/05 07:18:57;;;;;;;;;;;7.10;99.90;;;;;;5002341;28;19930;-81
2022/04/05 07:21:24;;;;;;;;;;;7.20;99.90;;;;;;5003219;28;19926;-79
2022/04/05 07:23:51;;;;;;;;;;;7.20;99.90;;;;;;5005165;28;19975;-79
2022/04/05 07:26:21;;;;;;;;;;;7.30;99.90;;;;;;5013192;28;19932;-79
2022/04/05 07:28:47;;;;;;;;;;;7.30;99.90;;;;;;5012332;28;19968;-80
2022/04/05 07:31:14;;;;;;;;;;;7.30;99.90;;;;;;5019726;28;19926;-80
2022/04/05 07:33:40;;;;;;;;;;;7.30;99.90;;;;;;5001333;28;19925;-80
2022/04/05 07:36:07;;;;;;;;;;;7.30;99.90;;;;;;5017202;28;20012;-80
2022/04/05 07:38:33;;;;;;;;;;;7.40;99.90;;;;;;5001814;28;19925;-78
2022/04/05 07:41:00;;;;;;;;;;;7.40;99.90;;;;;;5002968;28;19926;-81
2022/04/05 07:43:27;;;;;;;;;;;7.40;99.90;;;;;;5023642;28;19929;-77
2022/04/05 07:45:53;;;;;;;;;;;7.40;99.90;;;;;;5009424;28;19957;-78
2022/04/05 07:48:20;;;;;;;;;;;7.50;99.90;;;;;;5016385;28;20024;-79
2022/04/05 07:50:46;;;;;;;;;;;7.50;99.90;;;;;;5000375;28;19929;-78
2022/04/05 07:53:13;;;;;;;;;;;7.50;99.90;;;;;;5002385;28;19932;-80
2022/04/05 07:55:39;;;;;;;;;;;7.50;99.90;;;;;;5012817;28;19929;-79
2022/04/05 07:58:06;;;;;;;;;;;7.50;99.90;;;;;;5015897;28;19925;-79
2022/04/05 08:00:32;;;;;;;;;;;7.60;99.90;;;;;;5009046;28;19933;-79
2022/04/05 08:02:59;;;;;;;;;;;7.50;99.90;;;;;;5020505;28;19925;-79
2022/04/05 08:05:27;;;;;;;;;;;7.50;99.90;;;;;;5003683;28;19929;-78
2022/04/05 08:07:54;;;;;;;;;;;7.50;99.90;;;;;;5021254;28;20289;-79
2022/04/05 08:10:20;;;;;;;;;;;7.50;99.90;;;;;;5002481;28;19925;-79
2022/04/05 08:12:47;;;;;;;;;;;7.60;99.90;;;;;;5001501;28;19925;-78
2022/04/05 08:15:13;;;;;;;;;;;7.60;99.90;;;;;;4999235;28;19926;-80
2022/04/05 08:17:40;;;;;;;;;;;7.50;99.90;;;;;;4994966;28;20411;-79
2022/04/05 08:20:07;;;;;;;;;;;7.60;99.90;;;;;;4994658;28;19932;-79
2022/04/05 08:22:33;;;;;;;;;;;7.60;99.90;;;;;;4995937;28;19932;-78
2022/04/05 08:25:00;;;;;;;;;;;7.60;99.90;;;;;;5012099;28;19937;-78
2022/04/05 08:27:27;;;;;;;;;;;7.60;99.90;;;;;;5003857;28;19925;-78
2022/04/05 08:29:53;;;;;;;;;;;7.60;99.90;;;;;;4997786;28;20293;-78
2022/04/05 08:32:20;;;;;;;;;;;7.60;99.90;;;;;;4996254;28;19948;-78
2022/04/05 08:34:46;;;;;;;;;;;7.60;99.90;;;;;;5015158;28;19926;-78
2022/04/05 08:37:13;;;;;;;;;;;7.60;99.90;;;;;;5000993;28;19925;-79
2022/04/05 08:39:39;;;;;;;;;;;7.60;99.90;;;;;;5017698;28;19929;-79
2022/04/05 08:42:06;;;;;;;;;;;7.50;99.90;;;;;;5002354;28;19933;-81
2022/04/05 08:44:33;;;;;;;;;;;7.60;99.90;;;;;;5031612;28;19932;-79
2022/04/05 08:46:59;;;;;;;;;;;7.60;99.90;;;;;;5022094;28;19929;-79
2022/04/05 08:49:26;;;;;;;;;;;7.60;99.90;;;;;;5009666;28;19932;-78
2022/04/05 08:51:52;;;;;;;;;;;7.60;99.90;;;;;;5022882;28;19925;-79
2022/04/05 08:54:19;;;;;;;;;;;7.80;99.90;;;;;;5008417;28;19940;-77
2022/04/05 08:56:47;;;;;;;;;;;7.80;99.90;;;;;;5020329;28;20366;-78
2022/04/05 08:59:13;;;;;;;;;;;7.90;99.90;;;;;;5004692;28;19931;-81
2022/04/05 09:01:40;;;;;;;;;;;7.90;99.90;;;;;;5015121;28;19937;-78
2022/04/05 09:04:06;;;;;;;;;;;8.00;99.90;;;;;;5020806;28;19932;-79
2022/04/05 09:06:33;;;;;;;;;;;8.00;99.90;;;;;;5009317;28;19925;-78
2022/04/05 09:08:59;;;;;;;;;;;8.00;99.90;;;;;;5014446;28;19929;-78
2022/04/05 09:11:26;;;;;;;;;;;8.10;99.90;;;;;;5013209;28;19928;-79
2022/04/05 09:13:53;;;;;;;;;;;8.20;99.90;;;;;;5015712;28;19931;-81
2022/04/05 09:16:19;;;;;;;;;;;8.30;99.90;;;;;;5019285;28;19933;-82
2022/04/05 09:18:46;;;;;;;;;;;8.40;99.90;;;;;;5013424;28;19933;-81
2022/04/05 09:21:13;;;;;;;;;;;8.50;99.90;;;;;;5008050;28;20380;-82
2022/04/05 09:23:41;;;;;;;;;;;8.50;99.90;;;;;;5011707;28;20011;-81
2022/04/05 09:26:07;;;;;;;;;;;8.50;99.90;;;;;;5015650;28;20284;-81
2022/04/05 09:28:34;;;;;;;;;;;8.50;99.90;;;;;;5029506;28;19948;-83
2022/04/05 09:31:00;;;;;;;;;;;8.50;99.90;;;;;;5016087;28;20344;-82
2022/04/05 09:33:27;;;;;;;;;;;8.50;99.90;;;;;;5017084;28;19932;-81
2022/04/05 09:35:55;;;;;;;;;;;8.60;99.90;;;;;;5017506;28;19925;-81
2022/04/05 09:38:22;;;;;;;;;;;8.60;99.90;;;;;;5023937;28;19925;-82
2022/04/05 09:40:52;;;;;;;;;;;8.60;99.90;;;;;;5015752;28;20292;-82
2022/04/05 09:43:18;;;;;;;;;;;8.70;99.90;;;;;;5033368;28;20391;-81
2022/04/05 09:45:45;;;;;;;;;;;8.70;99.90;;;;;;5031445;28;20373;-81
2022/04/05 09:48:11;;;;;;;;;;;8.70;99.90;;;;;;5033090;28;19926;-82
2022/04/05 09:50:38;;;;;;;;;;;8.70;99.90;;;;;;5015244;28;20399;-81
2022/04/05 09:53:05;;;;;;;;;;;8.70;99.90;;;;;;5012906;28;19947;-80
2022/04/05 09:55:31;;;;;;;;;;;8.60;99.90;;;;;;5030055;28;20288;-80
2022/04/05 09:57:58;;;;;;;;;;;8.60;99.90;;;;;;5007027;28;20372;-81
2022/04/05 10:00:24;;;;;;;;;;;8.60;99.90;;;;;;5019077;28;19936;-81
2022/04/05 10:02:51;;;;;;;;;;;8.60;99.90;;;;;;5017661;28;19940;-80
2022/04/05 10:05:17;;;;;;;;;;;8.60;99.90;;;;;;5007143;28;19924;-81
2022/04/05 10:07:45;;;;;;;;;;;8.60;99.90;;;;;;5017738;28;19932;-80
2022/04/05 10:10:12;;;;;;;;;;;8.60;99.90;;;;;;5004177;28;19929;-81
2022/04/05 10:12:38;;;;;;;;;;;8.50;99.90;;;;;;5015456;28;19931;-81
2022/04/05 10:15:05;;;;;;;;;;;8.50;99.90;;;;;;5016465;28;19941;-81
2022/04/05 10:17:31;;;;;;;;;;;8.50;99.90;;;;;;5002550;28;19925;-82
2022/04/05 10:19:58;;;;;;;;;;;8.50;99.90;;;;;;5004086;28;19925;-82
2022/04/05 10:22:25;;;;;;;;;;;8.50;99.90;;;;;;5008095;28;20241;-80
2022/04/05 10:24:52;;;;;;;;;;;8.50;99.90;;;;;;5022388;28;19925;-79
2022/04/05 10:27:18;;;;;;;;;;;8.40;99.90;;;;;;5024433;28;19925;-80
2022/04/05 10:29:45;;;;;;;;;;;8.40;99.90;;;;;;5009505;28;19932;-79
2022/04/05 10:32:11;;;;;;;;;;;8.40;99.90;;;;;;5027160;28;19925;-81
2022/04/05 10:34:38;;;;;;;;;;;8.40;99.90;;;;;;5018841;28;19921;-81
2022/04/05 10:37:04;;;;;;;;;;;8.40;99.90;;;;;;5033319;28;19925;-80
2022/04/05 10:39:31;;;;;;;;;;;8.40;99.90;;;;;;5023585;28;19936;-82
2022/04/05 10:41:57;;;;;;;;;;;8.40;99.90;;;;;;5010494;28;19925;-81
2022/04/05 10:44:24;;;;;;;;;;;8.40;99.90;;;;;;5021216;28;19932;-82
2022/04/05 10:46:50;;;;;;;;;;;8.40;99.90;;;;;;5027594;28;19956;-81
2022/04/05 10:49:17;;;;;;;;;;;8.40;99.90;;;;;;5017302;28;19925;-80
2022/04/05 10:51:43;;;;;;;;;;;8.40;99.90;;;;;;5011604;28;20270;-81
2022/04/05 10:56:53;;;;;;;;;;;8.40;99.90;;;;;;5016031;28;19940;-81
2022/04/05 10:59:20;;;;;;;;;;;8.50;99.90;;;;;;5026281;28;20430;-82
2022/04/05 11:01:47;;;;;;;;;;;8.60;99.90;;;;;;5021900;28;19964;-80
2022/04/05 11:04:14;;;;;;;;;;;8.60;99.90;;;;;;5022646;28;19925;-81
2022/04/05 11:06:40;;;;;;;;;;;8.60;99.90;;;;;;5025602;28;19929;-82
2022/04/05 11:09:07;;;;;;;;;;;8.60;99.90;;;;;;5003550;28;19925;-81
2022/04/05 11:11:33;;;;;;;;;;;8.60;99.90;;;;;;5037259;28;19933;-81
2022/04/05 11:14:00;;;;;;;;;;;8.70;99.90;;;;;;5016204;28;19925;-81
2022/04/05 11:16:26;;;;;;;;;;;8.70;99.90;;;;;;5018991;28;19968;-81
2022/04/05 11:18:53;;;;;;;;;;;8.70;99.90;;;;;;5010977;28;19941;-80
2022/04/05 11:21:20;;;;;;;;;;;8.80;99.90;;;;;;5002792;28;19932;-81
2022/04/05 11:23:46;;;;;;;;;;;8.90;99.90;;;;;;5015988;28;19925;-81
2022/04/05 11:26:13;;;;;;;;;;;8.90;99.90;;;;;;5013622;28;19925;-81
2022/04/05 11:28:40;;;;;;;;;;;8.90;99.90;;;;;;5008162;28;19952;-82
2022/04/05 11:31:08;;;;;;;;;;;8.90;99.90;;;;;;5030063;28;19925;-81
2022/04/05 11:33:34;;;;;;;;;;;8.90;99.90;;;;;;5015162;28;20265;-81
2022/04/05 11:36:01;;;;;;;;;;;8.90;99.90;;;;;;5028457;28;19937;-81
2022/04/05 11:38:28;;;;;;;;;;;8.90;99.90;;;;;;5027526;28;19979;-81
2022/04/05 11:40:55;;;;;;;;;;;8.90;99.90;;;;;;5008486;28;19929;-81
2022/04/05 11:43:24;;;;;;;;;;;8.80;99.90;;;;;;5015121;28;19933;-81
2022/04/05 11:45:51;;;;;;;;;;;8.80;99.90;;;;;;5014686;28;19925;-82
2022/04/05 11:48:17;;;;;;;;;;;8.80;99.90;;;;;;5014718;28;20361;-80
2022/04/05 11:50:44;;;;;;;;;;;8.90;99.90;;;;;;5021850;28;20528;-81
2022/04/05 11:53:10;;;;;;;;;;;8.90;99.90;;;;;;5009169;28;19997;-81
2022/04/05 11:58:34;;;;;;;;;;;8.80;99.90;;;;;;4964460;28;19933;-81
2022/04/05 12:01:01;;;;;;;;;;;8.70;99.90;;;;;;4996089;28;20171;-80
2022/04/05 12:03:27;;;;;;;;;;;8.80;99.90;;;;;;5010231;28;20036;-83
2022/04/05 12:05:54;;;;;;;;;;;8.80;99.90;;;;;;5021604;28;19925;-80
2022/04/05 12:08:20;;;;;;;;;;;8.90;99.90;;;;;;5028705;28;19925;-80
2022/04/05 12:10:47;;;;;;;;;;;8.90;99.90;;;;;;5014932;28;19921;-81
2022/04/05 12:13:14;;;;;;;;;;;9.10;99.90;;;;;;5006525;28;19932;-82
2022/04/05 12:15:40;;;;;;;;;;;9.00;99.90;;;;;;5019016;28;19925;-81
2022/04/05 12:18:07;;;;;;;;;;;8.90;99.90;;;;;;5029258;28;20357;-81
2022/04/05 12:20:33;;;;;;;;;;;8.80;99.90;;;;;;5028279;28;19972;-80
2022/04/05 12:23:00;;;;;;;;;;;8.80;99.90;;;;;;5012598;28;20024;-81
2022/04/05 12:25:27;;;;;;;;;;;8.70;99.90;;;;;;5027821;28;19979;-81
2022/04/05 12:27:53;;;;;;;;;;;8.80;99.90;;;;;;5030916;28;20000;-81
2022/04/05 12:30:20;;;;;;;;;;;8.70;99.90;;;;;;5009528;28;20365;-81
2022/04/05 12:32:46;;;;;;;;;;;8.70;99.90;;;;;;5007093;28;19925;-80
2022/04/05 12:35:15;;;;;;;;;;;8.70;99.90;;;;;;5017075;28;20213;-81
2022/04/05 12:37:44;;;;;;;;;;;8.80;99.90;;;;;;5015937;28;19951;-81
2022/04/05 12:40:12;;;;;;;;;;;8.80;99.90;;;;;;5012435;28;19926;-81
2022/04/05 12:42:39;;;;;;;;;;;8.70;99.90;;;;;;5024352;28;19925;-81
2022/04/05 12:45:06;;;;;;;;;;;8.80;99.90;;;;;;5017300;28;20356;-80
2022/04/05 12:47:32;;;;;;;;;;;8.80;99.90;;;;;;5025086;28;19936;-82
2022/04/05 12:49:59;;;;;;;;;;;8.90;99.90;;;;;;5015278;28;19933;-81
2022/04/05 12:52:25;;;;;;;;;;;8.90;99.90;;;;;;5030497;28;19932;-81
2022/04/05 12:54:52;;;;;;;;;;;9.00;99.90;;;;;;5011232;28;20481;-81
2022/04/05 12:57:18;;;;;;;;;;;9.10;99.90;;;;;;5033840;28;20376;-81
2022/04/05 12:59:45;;;;;;;;;;;9.10;99.90;;;;;;5015607;28;19925;-81
2022/04/05 13:02:11;;;;;;;;;;;9.20;99.90;;;;;;5016131;28;20410;-82
2022/04/05 13:04:38;;;;;;;;;;;9.20;99.90;;;;;;5004193;28;20019;-78
2022/04/05 13:07:05;;;;;;;;;;;9.20;99.90;;;;;;5011829;28;20273;-80
2022/04/05 13:09:31;;;;;;;;;;;9.10;99.90;;;;;;5031092;28;19925;-83
2022/04/05 13:11:58;;;;;;;;;;;9.20;99.90;;;;;;5009353;28;19931;-82
2022/04/05 13:14:24;;;;;;;;;;;9.10;99.90;;;;;;5009611;28;19925;-82
2022/04/05 13:16:51;;;;;;;;;;;9.20;99.90;;;;;;5018239;28;19929;-81
2022/04/05 13:19:17;;;;;;;;;;;9.30;99.90;;;;;;5011635;28;19925;-86
2022/04/05 13:21:44;;;;;;;;;;;9.30;99.90;;;;;;5016320;28;19931;-85
2022/04/05 13:24:10;;;;;;;;;;;9.40;99.90;;;;;;5016324;28;19933;-84
2022/04/05 13:26:37;;;;;;;;;;;9.30;99.90;;;;;;5015084;28;19928;-84
2022/04/05 13:29:04;;;;;;;;;;;9.30;99.90;;;;;;5021098;28;19933;-84
2022/04/05 13:31:31;;;;;;;;;;;9.40;99.90;;;;;;5005458;28;19972;-84
2022/04/05 13:33:58;;;;;;;;;;;9.40;99.90;;;;;;5018407;28;19955;-85
2022/04/05 13:36:24;;;;;;;;;;;9.30;99.90;;;;;;5024062;28;19926;-84
2022/04/05 13:38:51;;;;;;;;;;;9.30;99.90;;;;;;5026464;28;20021;-84
2022/04/05 13:41:17;;;;;;;;;;;9.30;99.90;;;;;;5019486;28;19925;-84
2022/04/05 13:43:44;;;;;;;;;;;9.40;99.90;;;;;;5020333;28;19933;-83
2022/04/05 13:46:10;;;;;;;;;;;9.40;99.90;;;;;;5022391;28;19933;-85
2022/04/05 13:48:37;;;;;;;;;;;9.40;99.90;;;;;;5004844;28;20039;-87
2022/04/05 13:51:04;;;;;;;;;;;9.40;99.90;;;;;;4994623;28;19929;-85
2022/04/05 13:53:30;;;;;;;;;;;9.40;99.90;;;;;;4998118;28;20466;-85
2022/04/05 13:55:57;;;;;;;;;;;9.40;99.90;;;;;;5002296;28;20445;-84
2022/04/05 13:58:24;;;;;;;;;;;9.40;99.90;;;;;;5004755;28;19925;-84
2022/04/05 14:00:50;;;;;;;;;;;9.40;99.90;;;;;;5000157;28;19929;-81
2022/04/05 14:03:19;;;;;;;;;;;9.40;99.90;;;;;;5001859;28;19936;-81
2022/04/05 14:05:45;;;;;;;;;;;9.40;99.90;;;;;;4995348;28;19926;-81
2022/04/05 14:08:12;;;;;;;;;;;9.50;99.90;;;;;;5018495;28;20309;-81
2022/04/05 14:10:39;;;;;;;;;;;9.40;99.90;;;;;;5010301;28;19925;-81
2022/04/05 14:13:05;;;;;;;;;;;9.40;99.90;;;;;;5004649;28;19968;-80
2022/04/05 14:15:32;;;;;;;;;;;9.40;99.90;;;;;;5024550;28;19936;-80
2022/04/05 14:17:59;;;;;;;;;;;9.40;99.90;;;;;;5005043;28;19956;-81
2022/04/05 14:20:25;;;;;;;;;;;9.40;99.90;;;;;;5005810;28;19929;-82
2022/04/05 14:22:52;;;;;;;;;;;9.40;99.90;;;;;;5020090;28;19929;-83
2022/04/05 14:25:19;;;;;;;;;;;9.40;99.90;;;;;;5011350;28;19936;-82
2022/04/05 14:27:45;;;;;;;;;;;9.50;99.90;;;;;;5023077;28;19929;-81
2022/04/05 14:30:12;;;;;;;;;;;9.50;99.90;;;;;;5014154;28;19938;-81
2022/04/05 14:32:39;;;;;;;;;;;9.50;99.90;;;;;;5022907;28;19935;-82